Observation data for Seymour on 12/07/2018      Previous  Date       Current Mesonet Observations  Soil Data  Daily Summary Page  Observations in Plain Language
KSE1 070600Z 36009KT 05/M01 A3031 RMK A01 T00471007  RH  069%=      5-min Rain = 0
KSE1 070605Z 00008KT 05/M01 A3031 RMK A01 T00471007  RH  069%=      5-min Rain = 0
KSE1 070610Z 01009KT 05/M01 A303 RMK A01 T00471006  RH  069%=      5-min Rain = 0
KSE1 070615Z 36010G15KT 05/M01 A3031 RMK A01 T00471008  RH  068%=      5-min Rain = 0
KSE1 070620Z 00011KT 05/M01 A303 RMK A01 T00471008  RH  068%=      5-min Rain = 0
KSE1 070625Z 35011KT 05/M01 A3031 RMK A01 T00471008  RH  068%=      5-min Rain = 0
KSE1 070630Z 35010KT 05/M01 A3031 RMK A01 T00471008  RH  068%=      5-min Rain = 0
KSE1 070635Z 35009KT 05/M01 A3032 RMK A01 T00471007  RH  069%=      5-min Rain = 0
KSE1 070640Z 34009KT 05/M01 A3032 RMK A01 T00471007  RH  069%=      5-min Rain = 0
KSE1 070645Z 34008KT 05/M01 A3032 RMK A01 T00471007  RH  069%=      5-min Rain = 0
KSE1 070650Z 35009KT 05/M01 A3032 RMK A01 T00461008  RH  069%=      5-min Rain = 0
KSE1 070655Z 34008KT 05/M01 A3033 RMK A01 T00461007  RH  069%=      5-min Rain = 0
KSE1 070700Z 34009KT 05/M01 A3033 RMK A01 T00451007  RH  069%=      5-min Rain = 0
KSE1 070705Z 34009KT 05/M01 A3033 RMK A01 T00451008  RH  069%=      5-min Rain = 0
KSE1 070710Z 34008KT 05/M01 A3033 RMK A01 T00451007  RH  069%=      5-min Rain = 0
KSE1 070715Z 34008KT 05/M01 A3033 RMK A01 T00451007  RH  069%=      5-min Rain = 0
KSE1 070720Z 34008KT 05/M01 A3033 RMK A01 T00451007  RH  070%=      5-min Rain = 0
KSE1 070725Z 34008KT 05/M01 A3033 RMK A01 T00451007  RH  070%=      5-min Rain = 0
KSE1 070730Z 34010KT 05/M01 A3033 RMK A01 T00451007  RH  070%=      5-min Rain = 0
KSE1 070735Z 34008KT 05/M01 A3033 RMK A01 T00451007  RH  070%=      5-min Rain = 0
KSE1 070740Z 34008KT 04/M01 A3033 RMK A01 T00441007  RH  070%=      5-min Rain = 0
KSE1 070745Z 34008KT 04/M01 A3033 RMK A01 T00441008  RH  070%=      5-min Rain = 0
KSE1 070750Z 34008KT 05/M01 A3033 RMK A01 T00451007  RH  070%=      5-min Rain = 0
KSE1 070755Z 35009KT 04/M01 A3033 RMK A01 T00441008  RH  070%=      5-min Rain = 0
KSE1 070800Z 34008KT 04/M01 A3033 RMK A01 T00441008  RH  070%=      5-min Rain = 0
KSE1 070805Z 35008KT 04/M01 A3033 RMK A01 T00441008  RH  070%=      5-min Rain = 0
KSE1 070810Z 34007KT 04/M01 A3033 RMK A01 T00441008  RH  070%=      5-min Rain = 0
KSE1 070815Z 35008KT 04/M01 A3032 RMK A01 T00431008  RH  070%=      5-min Rain = 0
KSE1 070820Z 34008KT 04/M01 A3033 RMK A01 T00431007  RH  070%=      5-min Rain = 0
KSE1 070825Z 34009KT 04/M01 A3033 RMK A01 T00431008  RH  070%=      5-min Rain = 0
KSE1 070830Z 34009KT 04/M01 A3033 RMK A01 T00431008  RH  070%=      5-min Rain = 0
KSE1 070835Z 35008KT 04/M01 A3033 RMK A01 T00421009  RH  070%=      5-min Rain = 0
KSE1 070840Z 34010KT 04/M01 A3032 RMK A01 T00421009  RH  070%=      5-min Rain = 0
KSE1 070845Z 34010KT 04/M01 A3032 RMK A01 T00421009  RH  070%=      5-min Rain = 0
KSE1 070850Z 34010KT 04/M01 A3032 RMK A01 T00421009  RH  070%=      5-min Rain = 0
KSE1 070855Z 35012KT 04/M01 A3032 RMK A01 T00421009  RH  071%=      5-min Rain = 0
KSE1 070900Z 35011KT 04/M01 A3032 RMK A01 T00411009  RH  071%=      5-min Rain = 0
KSE1 070905Z 35011KT 04/M01 A3032 RMK A01 T00411009  RH  071%=      5-min Rain = 0
KSE1 070910Z 34011KT 04/M01 A3032 RMK A01 T00411009  RH  071%=      5-min Rain = 0
KSE1 070915Z 34010KT 04/M01 A3033 RMK A01 T00411009  RH  071%=      5-min Rain = 0
KSE1 070920Z 34010KT 04/M01 A3033 RMK A01 T00411009  RH  071%=      5-min Rain = 0
KSE1 070925Z 34009KT 04/M01 A3033 RMK A01 T00411009  RH  071%=      5-min Rain = 0
KSE1 070930Z 35010KT 04/M01 A3033 RMK A01 T00401009  RH  071%=      5-min Rain = 0
KSE1 070935Z 34010KT 04/M01 A3033 RMK A01 T00401009  RH  071%=      5-min Rain = 0
KSE1 070940Z 35010KT 04/M01 A3032 RMK A01 T00401008  RH  072%=      5-min Rain = 0
KSE1 070945Z 35009KT 04/M01 A3033 RMK A01 T00401007  RH  072%=      5-min Rain = 0
KSE1 070950Z 35010KT 04/M01 A3032 RMK A01 T00401007  RH  072%=      5-min Rain = 0
KSE1 070955Z 00010KT 04/M01 A3032 RMK A01 T00401007  RH  072%=      5-min Rain = 0
KSE1 071000Z 36010KT 04/M01 A3033 RMK A01 T00401006  RH  073%=      5-min Rain = 0
KSE1 071005Z 36009KT 04/M01 A3033 RMK A01 T00401006  RH  073%=      5-min Rain = 0
KSE1 071010Z 35009KT 04/M01 A3033 RMK A01 T00401006  RH  073%=      5-min Rain = 0
KSE1 071015Z 35010KT 04/M01 A3033 RMK A01 T00401005  RH  073%=      5-min Rain = 0
KSE1 071020Z 35010KT 04/M01 A3033 RMK A01 T00391005  RH  074%=      5-min Rain = 0
KSE1 071025Z 34009KT 04/M00 A3033 RMK A01 T00391004  RH  074%=      5-min Rain = 0
KSE1 071030Z 35009KT 04/M00 A3033 RMK A01 T00391004  RH  074%=      5-min Rain = 0
KSE1 071035Z 35009KT 04/M00 A3033 RMK A01 T00391003  RH  075%=      5-min Rain = 0
KSE1 071040Z 35009KT 04/M00 A3033 RMK A01 T00391003  RH  075%=      5-min Rain = 0
KSE1 071045Z 35009KT 04/M00 A3033 RMK A01 T00391002  RH  076%=      5-min Rain = 0
KSE1 071050Z 35009KT 04/M00 A3034 RMK A01 T00381002  RH  076%=      5-min Rain = 0
KSE1 071055Z 35009KT 04/M00 A3034 RMK A01 T00381001  RH  077%=      5-min Rain = 0
KSE1 071100Z 35007KT 04/00 A3034 RMK A01 T00380001  RH  077%=      5-min Rain = 0
KSE1 071105Z 35008KT 04/00 A3035 RMK A01 T00370002  RH  079%=      5-min Rain = 0
KSE1 071110Z 36008KT 04/00 A3035 RMK A01 T00360003  RH  080%=      5-min Rain = 0
KSE1 071115Z 34009KT 04/00 A3035 RMK A01 T00350004  RH  081%=      5-min Rain = 0
KSE1 071120Z 35009KT 03/00 A3035 RMK A01 T00340004  RH  082%=      5-min Rain = 0
KSE1 071125Z 35009KT 03/01 A3036 RMK A01 T00330006  RH  083%=      5-min Rain = 0
KSE1 071130Z 35009KT 03/01 A3036 RMK A01 T00320007  RH  085%=      5-min Rain = 0
KSE1 071135Z 01009KT 03/01 A3035 RMK A01 T00310008  RH  086%=      5-min Rain = 0
KSE1 071140Z 00010KT 03/01 A3034 RMK A01 T00290010  RH  089%=      5-min Rain = 0
KSE1 071145Z 00010KT 03/01 A3033 RMK A01 T00280013  RH  091%=      5-min Rain = 0
KSE1 071150Z 35010KT 03/01 A3034 RMK A01 T00270014  RH  092%=      5-min Rain = 0
KSE1 071155Z 34010KT 03/02 A3035 RMK A01 T00260015  RH  094%=      5-min Rain = 0
KSE1 071200Z 35010KT 03/02 A3035 RMK A01 T00260016  RH  094%=      5-min Rain = 0
KSE1 071205Z 34010KT 03/02 A3035 RMK A01 T00260017  RH  095%=      5-min Rain = 0
KSE1 071210Z 34010KT 03/02 A3036 RMK A01 T00260017  RH  095%=      5-min Rain = 0
KSE1 071215Z 34010KT 03/02 A3036 RMK A01 T00260018  RH  096%=      5-min Rain = 0
KSE1 071220Z 34009KT 03/02 A3036 RMK A01 T00260017  RH  096%=      5-min Rain = 0
KSE1 071225Z 35007KT 03/02 A3036 RMK A01 T00260018  RH  096%=      5-min Rain = 0
KSE1 071230Z 34008KT 03/02 A3036 RMK A01 T00260018  RH  096%=      5-min Rain = 0
KSE1 071235Z 35009KT 03/02 A3036 RMK A01 T00260018  RH  096%=      5-min Rain = 0
KSE1 071240Z 35009KT 03/02 A3036 RMK A01 T00260018  RH  096%=      5-min Rain = 0
KSE1 071245Z 36008KT 03/02 A3036 RMK A01 T00260018  RH  096%=      5-min Rain = 0
KSE1 071250Z 35006KT 03/02 A3036 RMK A01 T00260019  RH  096%=      5-min Rain = 0
KSE1 071255Z 01007KT 03/02 A3036 RMK A01 T00260018  RH  096%=      5-min Rain = 0
KSE1 071300Z 01007KT 03/02 A3036 RMK A01 T00260018  RH  096%=      5-min Rain = 0
KSE1 071305Z 01008KT 03/02 A3036 RMK A01 T00260019  RH  097%=      5-min Rain = 0.01
KSE1 071310Z 01007KT 03/02 A3035 RMK A01 T00260019  RH  097%=      5-min Rain = 0.01
KSE1 071315Z 02007KT 03/02 A3035 RMK A01 T00260019  RH  097%=      5-min Rain = 0
KSE1 071320Z 04007KT 03/02 A3034 RMK A01 T00250019  RH  097%=      5-min Rain = 0.01
KSE1 071325Z 05009KT 03/02 A3033 RMK A01 T00250019  RH  097%=      5-min Rain = 0.01
KSE1 071330Z 06011G17KT 03/02 A3032 RMK A01 T00250019  RH  097%=      5-min Rain = 0
KSE1 071335Z 07011KT 02/02 A303 RMK A01 T00240018  RH  097%=      5-min Rain = 0.01
KSE1 071340Z 06013KT 02/02 A303 RMK A01 T00220016  RH  097%=      5-min Rain = 0
KSE1 071345Z 07010G16KT 02/02 A3031 RMK A01 T00220015  RH  097%=      5-min Rain = 0.02
KSE1 071350Z 07010G15KT 02/02 A3031 RMK A01 T00210015  RH  097%=      5-min Rain = 0.01
KSE1 071355Z 07007KT 02/01 A3031 RMK A01 T00210014  RH  097%=      5-min Rain = 0
KSE1 071400Z 01008KT 02/02 A3035 RMK A01 T00220016  RH  097%=      5-min Rain = 0.01
KSE1 071405Z 01010KT 02/02 A3035 RMK A01 T00220016  RH  097%=      5-min Rain = 0
KSE1 071410Z 01009KT 02/02 A3036 RMK A01 T00220016  RH  097%=      5-min Rain = 0
KSE1 071415Z 00010KT 02/02 A3036 RMK A01 T00220016  RH  097%=      5-min Rain = 0
KSE1 071420Z 00009KT 02/02 A3036 RMK A01 T00220016  RH  097%=      5-min Rain = 0
KSE1 071425Z 36009KT 02/02 A3037 RMK A01 T00220016  RH  097%=      5-min Rain = 0
KSE1 071430Z 00008KT 02/02 A3037 RMK A01 T00230016  RH  097%=      5-min Rain = 0
KSE1 071435Z 01009KT 02/02 A3037 RMK A01 T00230017  RH  097%=      5-min Rain = 0
KSE1 071440Z 02009KT 02/02 A3037 RMK A01 T00230016  RH  097%=      5-min Rain = 0.01
KSE1 071445Z 02009KT 02/02 A3037 RMK A01 T00230016  RH  097%=      5-min Rain = 0
KSE1 071450Z 02008KT 02/02 A3037 RMK A01 T00240017  RH  097%=      5-min Rain = 0
KSE1 071455Z 01008KT 02/02 A3037 RMK A01 T00240017  RH  096%=      5-min Rain = 0
KSE1 071500Z 36012KT 02/02 A3037 RMK A01 T00230016  RH  096%=      5-min Rain = 0
KSE1 071505Z 00011KT 02/02 A3037 RMK A01 T00220015  RH  097%=      5-min Rain = 0
KSE1 071510Z 00012KT 02/01 A3037 RMK A01 T00210014  RH  097%=      5-min Rain = 0
KSE1 071515Z 01009KT 02/02 A3037 RMK A01 T00210015  RH  097%=      5-min Rain = 0
KSE1 071520Z 02011KT 02/02 A3037 RMK A01 T00210015  RH  097%=      5-min Rain = 0
KSE1 071525Z 02010KT 02/01 A3038 RMK A01 T00210014  RH  097%=      5-min Rain = 0
KSE1 071530Z 03009KT 02/01 A3038 RMK A01 T00200014  RH  097%=      5-min Rain = 0
KSE1 071535Z 03007KT 02/01 A3038 RMK A01 T00210014  RH  096%=      5-min Rain = 0
KSE1 071540Z 02008KT 02/02 A3038 RMK A01 T00220015  RH  096%=      5-min Rain = 0
KSE1 071545Z 02009KT 02/02 A3038 RMK A01 T00220015  RH  097%=      5-min Rain = 0
KSE1 071550Z 02009KT 02/02 A3039 RMK A01 T00220015  RH  097%=      5-min Rain = 0
KSE1 071555Z 02009KT 02/02 A3039 RMK A01 T00220015  RH  097%=      5-min Rain = 0
KSE1 071600Z 01009KT 02/02 A3039 RMK A01 T00220015  RH  097%=      5-min Rain = 0
KSE1 071605Z 01009KT 02/02 A304 RMK A01 T00210015  RH  097%=      5-min Rain = 0
KSE1 071610Z 00010KT 02/02 A304 RMK A01 T00220015  RH  097%=      5-min Rain = 0
KSE1 071615Z 01011KT 02/01 A304 RMK A01 T00210014  RH  097%=      5-min Rain = 0
KSE1 071620Z 00010KT 02/02 A304 RMK A01 T00210015  RH  097%=      5-min Rain = 0
KSE1 071625Z 01010KT 02/02 A304 RMK A01 T00220015  RH  097%=      5-min Rain = 0
KSE1 071630Z 00010KT 02/01 A304 RMK A01 T00210014  RH  096%=      5-min Rain = 0
KSE1 071635Z 01009KT 02/02 A304 RMK A01 T00220015  RH  097%=      5-min Rain = 0
KSE1 071640Z 01011KT 02/01 A304 RMK A01 T00210014  RH  097%=      5-min Rain = 0
KSE1 071645Z 01011KT 02/01 A304 RMK A01 T00210014  RH  096%=      5-min Rain = 0
KSE1 071650Z 01010KT 02/01 A304 RMK A01 T00200013  RH  096%=      5-min Rain = 0.01
KSE1 071655Z 02009KT 02/01 A304 RMK A01 T00210013  RH  096%=      5-min Rain = 0
KSE1 071700Z 02009KT 02/01 A304 RMK A01 T00220014  RH  096%=      5-min Rain = 0
KSE1 071705Z 01009KT 02/02 A3039 RMK A01 T00220015  RH  096%=      5-min Rain = 0.01
KSE1 071710Z 01009KT 02/02 A3039 RMK A01 T00230016  RH  096%=      5-min Rain = 0
KSE1 071715Z 02009KT 02/02 A3039 RMK A01 T00230016  RH  096%=      5-min Rain = 0
KSE1 071720Z 01009KT 02/02 A3039 RMK A01 T00240017  RH  096%=      5-min Rain = 0
KSE1 071725Z 01009KT 03/02 A3039 RMK A01 T00250018  RH  096%=      5-min Rain = 0
KSE1 071730Z 01008KT 03/02 A3038 RMK A01 T00250017  RH  096%=      5-min Rain = 0.01
KSE1 071735Z 01008KT 03/02 A3038 RMK A01 T00250018  RH  096%=      5-min Rain = 0
KSE1 071740Z 01009KT 03/02 A3038 RMK A01 T00250018  RH  096%=      5-min Rain = 0
KSE1 071745Z 01009KT 03/02 A3037 RMK A01 T00250018  RH  096%=      5-min Rain = 0
KSE1 071750Z 02008KT 03/02 A3037 RMK A01 T00250017  RH  096%=      5-min Rain = 0
KSE1 071755Z 02010KT 02/02 A3037 RMK A01 T00240016  RH  096%=      5-min Rain = 0
KSE1 071800Z 03009KT 02/02 A3036 RMK A01 T00240015  RH  096%=      5-min Rain = 0
KSE1 071805Z 03009KT 02/02 A3035 RMK A01 T00240016  RH  096%=      5-min Rain = 0
KSE1 071810Z 02008KT 03/02 A3035 RMK A01 T00250017  RH  095%=      5-min Rain = 0
KSE1 071815Z 02008KT 03/02 A3034 RMK A01 T00250017  RH  095%=      5-min Rain = 0
KSE1 071820Z 02009KT 03/02 A3034 RMK A01 T00260017  RH  096%=      5-min Rain = 0.01
KSE1 071825Z 02009KT 03/02 A3034 RMK A01 T00250017  RH  096%=      5-min Rain = 0
KSE1 071830Z 02008KT 03/02 A3033 RMK A01 T00260017  RH  096%=      5-min Rain = 0
KSE1 071835Z 01008KT 03/02 A3033 RMK A01 T00250017  RH  096%=      5-min Rain = 0
KSE1 071840Z 01008KT 03/02 A3033 RMK A01 T00260018  RH  096%=      5-min Rain = 0
KSE1 071845Z 00010KT 03/02 A3033 RMK A01 T00260018  RH  096%=      5-min Rain = 0.01
KSE1 071850Z 00009KT 03/02 A3033 RMK A01 T00260017  RH  096%=      5-min Rain = 0
KSE1 071855Z 34009KT 03/02 A3032 RMK A01 T00250017  RH  096%=      5-min Rain = 0.01
KSE1 071900Z 34008KT 03/02 A3032 RMK A01 T00250018  RH  096%=      5-min Rain = 0
KSE1 071905Z 35008KT 03/02 A3032 RMK A01 T00250018  RH  097%=      5-min Rain = 0
KSE1 071910Z 35008KT 03/02 A3032 RMK A01 T00250018  RH  097%=      5-min Rain = 0.01
KSE1 071915Z 33010KT 02/02 A3032 RMK A01 T00220016  RH  097%=      5-min Rain = 0
KSE1 071920Z 33010KT 02/02 A3032 RMK A01 T00220015  RH  097%=      5-min Rain = 0
KSE1 071925Z 34009KT 02/02 A3032 RMK A01 T00220015  RH  097%=      5-min Rain = 0.01
KSE1 071930Z 34008KT 02/02 A3032 RMK A01 T00230016  RH  097%=      5-min Rain = 0
KSE1 071935Z 34008KT 02/02 A3032 RMK A01 T00230016  RH  097%=      5-min Rain = 0
KSE1 071940Z 35010KT 02/02 A3031 RMK A01 T00220016  RH  097%=      5-min Rain = 0
KSE1 071945Z 35009KT 02/02 A3031 RMK A01 T00230017  RH  097%=      5-min Rain = 0.01
KSE1 071950Z 34009KT 02/02 A3031 RMK A01 T00230016  RH  097%=      5-min Rain = 0
KSE1 071955Z 34009KT 02/02 A3031 RMK A01 T00220015  RH  096%=      5-min Rain = 0
KSE1 072000Z 35009KT 02/02 A3031 RMK A01 T00220015  RH  096%=      5-min Rain = 0
KSE1 072005Z 35010KT 02/01 A3031 RMK A01 T00210014  RH  096%=      5-min Rain = 0
KSE1 072010Z 35010KT 02/01 A303 RMK A01 T00220014  RH  096%=      5-min Rain = 0.01
KSE1 072015Z 35010KT 02/01 A303 RMK A01 T00220014  RH  096%=      5-min Rain = 0
KSE1 072020Z 00009KT 02/01 A303 RMK A01 T00210014  RH  096%=      5-min Rain = 0
KSE1 072025Z 00008KT 02/01 A303 RMK A01 T00220014  RH  096%=      5-min Rain = 0
KSE1 072030Z 35008KT 02/02 A303 RMK A01 T00220015  RH  096%=      5-min Rain = 0.01
KSE1 072035Z 00008KT 02/01 A303 RMK A01 T00220014  RH  096%=      5-min Rain = 0
KSE1 072040Z 00009KT 02/01 A303 RMK A01 T00220014  RH  096%=      5-min Rain = 0
KSE1 072045Z 36009KT 02/01 A303 RMK A01 T00220014  RH  096%=      5-min Rain = 0
KSE1 072050Z 00008KT 02/01 A303 RMK A01 T00210013  RH  096%=      5-min Rain = 0
KSE1 072055Z 00008KT 02/01 A303 RMK A01 T00210014  RH  096%=      5-min Rain = 0
KSE1 072100Z 36009KT 02/01 A303 RMK A01 T00210014  RH  096%=      5-min Rain = 0
KSE1 072105Z 36009KT 02/01 A303 RMK A01 T00210014  RH  096%=      5-min Rain = 0
KSE1 072110Z 35009KT 02/01 A303 RMK A01 T00210014  RH  096%=      5-min Rain = 0
KSE1 072115Z 35009KT 02/01 A303 RMK A01 T00210014  RH  096%=      5-min Rain = 0
KSE1 072120Z 34009KT 02/01 A303 RMK A01 T00220014  RH  096%=      5-min Rain = 0
KSE1 072125Z 35009KT 02/01 A303 RMK A01 T00210013  RH  096%=      5-min Rain = 0
KSE1 072130Z 34009KT 02/01 A303 RMK A01 T00210014  RH  096%=      5-min Rain = 0
KSE1 072135Z 34010KT 02/01 A303 RMK A01 T00210013  RH  096%=      5-min Rain = 0
KSE1 072140Z 34009KT 02/01 A303 RMK A01 T00200013  RH  096%=      5-min Rain = 0
KSE1 072145Z 34010KT 02/01 A303 RMK A01 T00200013  RH  096%=      5-min Rain = 0.01
KSE1 072150Z 34011KT 02/01 A303 RMK A01 T00200013  RH  097%=      5-min Rain = 0
KSE1 072155Z 34011KT 02/01 A303 RMK A01 T00200013  RH  097%=      5-min Rain = 0.01
KSE1 072200Z 34011KT 02/01 A303 RMK A01 T00200013  RH  097%=      5-min Rain = 0
KSE1 072205Z 34010KT 02/01 A3031 RMK A01 T00200014  RH  097%=      5-min Rain = 0
KSE1 072210Z 34010KT 02/01 A3031 RMK A01 T00200014  RH  097%=      5-min Rain = 0
KSE1 072215Z 34010KT 02/01 A3031 RMK A01 T00200014  RH  097%=      5-min Rain = 0
KSE1 072220Z 35011KT 02/01 A3031 RMK A01 T00190013  RH  097%=      5-min Rain = 0.01
KSE1 072225Z 35010KT 02/01 A3031 RMK A01 T00190013  RH  097%=      5-min Rain = 0
KSE1 072230Z 34011KT 02/01 A303 RMK A01 T00190013  RH  097%=      5-min Rain = 0
KSE1 072235Z 35012KT 02/01 A303 RMK A01 T00190013  RH  097%=      5-min Rain = 0
KSE1 072240Z 35011KT 02/01 A3029 RMK A01 T00180013  RH  097%=      5-min Rain = 0
KSE1 072245Z 35012KT 02/01 A3029 RMK A01 T00190013  RH  097%=      5-min Rain = 0
KSE1 072250Z 35011KT 02/01 A3029 RMK A01 T00190013  RH  097%=      5-min Rain = 0
KSE1 072255Z 35011KT 02/01 A3029 RMK A01 T00190014  RH  098%=      5-min Rain = 0
KSE1 072300Z 35012KT 02/01 A3028 RMK A01 T00190014  RH  098%=      5-min Rain = 0
KSE1 072305Z 36011KT 02/01 A3028 RMK A01 T00190014  RH  098%=      5-min Rain = 0
KSE1 072310Z 36011KT 02/01 A3028 RMK A01 T00190014  RH  098%=      5-min Rain = 0
KSE1 072315Z 36011KT 02/01 A3028 RMK A01 T00190014  RH  098%=      5-min Rain = 0
KSE1 072320Z 00011KT 02/01 A3028 RMK A01 T00200014  RH  098%=      5-min Rain = 0
KSE1 072325Z 36011KT 02/01 A3028 RMK A01 T00200014  RH  098%=      5-min Rain = 0
KSE1 072330Z 36011KT 02/02 A3028 RMK A01 T00200015  RH  098%=      5-min Rain = 0
KSE1 072335Z 36011KT 02/02 A3028 RMK A01 T00200015  RH  098%=      5-min Rain = 0
KSE1 072340Z 35010KT 02/02 A3029 RMK A01 T00210015  RH  098%=      5-min Rain = 0
KSE1 072345Z 35011KT 02/02 A3029 RMK A01 T00200015  RH  098%=      5-min Rain = 0
KSE1 072350Z 35012KT 02/02 A3029 RMK A01 T00200015  RH  098%=      5-min Rain = 0
KSE1 072355Z 36012KT 02/01 A303 RMK A01 T00200014  RH  098%=      5-min Rain = 0
KSE1 080000Z 35010KT 02/02 A303 RMK A01 T00200015  RH  098%=      5-min Rain = 0
KSE1 080005Z 34012KT 02/02 A3031 RMK A01 T00200015  RH  098%=      5-min Rain = 0
KSE1 080010Z 35012KT 02/01 A3031 RMK A01 T00200014  RH  098%=      5-min Rain = 0
KSE1 080015Z 35012KT 02/01 A3032 RMK A01 T00200014  RH  098%=      5-min Rain = 0
KSE1 080020Z 36011KT 02/01 A3031 RMK A01 T00200014  RH  098%=      5-min Rain = 0
KSE1 080025Z 00009KT 02/02 A3031 RMK A01 T00200015  RH  098%=      5-min Rain = 0
KSE1 080030Z 01010KT 02/02 A303 RMK A01 T00200015  RH  098%=      5-min Rain = 0
KSE1 080035Z 01010KT 02/02 A3031 RMK A01 T00200015  RH  098%=      5-min Rain = 0
KSE1 080040Z 36010KT 02/02 A3031 RMK A01 T00200016  RH  098%=      5-min Rain = 0
KSE1 080045Z 36010KT 02/02 A3032 RMK A01 T00200015  RH  098%=      5-min Rain = 0
KSE1 080050Z 36010KT 02/02 A3032 RMK A01 T00210015  RH  098%=      5-min Rain = 0
KSE1 080055Z 35010KT 02/02 A3032 RMK A01 T00210016  RH  098%=      5-min Rain = 0
KSE1 080100Z 36009KT 02/02 A3032 RMK A01 T00200015  RH  098%=      5-min Rain = 0
KSE1 080105Z 36009KT 02/02 A3032 RMK A01 T00200015  RH  098%=      5-min Rain = 0
KSE1 080110Z 00010KT 02/01 A3032 RMK A01 T00200014  RH  098%=      5-min Rain = 0
KSE1 080115Z 01010KT 02/01 A3033 RMK A01 T00190014  RH  098%=      5-min Rain = 0
KSE1 080120Z 01009KT 02/01 A3032 RMK A01 T00190014  RH  098%=      5-min Rain = 0.01
KSE1 080125Z 02008KT 02/01 A3032 RMK A01 T00200014  RH  098%=      5-min Rain = 0
KSE1 080130Z 03007KT 02/02 A3032 RMK A01 T00200015  RH  098%=      5-min Rain = 0
KSE1 080135Z 03009KT 02/02 A3033 RMK A01 T00200015  RH  098%=      5-min Rain = 0
KSE1 080140Z 03009KT 02/02 A3033 RMK A01 T00200015  RH  098%=      5-min Rain = 0.01
KSE1 080145Z 03010KT 02/01 A3033 RMK A01 T00180013  RH  098%=      5-min Rain = 0.01
KSE1 080150Z 03009KT 02/01 A3033 RMK A01 T00180013  RH  098%=      5-min Rain = 0.01
KSE1 080155Z 04011KT 02/01 A3033 RMK A01 T00170012  RH  098%=      5-min Rain = 0.01
KSE1 080200Z 03010KT 02/01 A3033 RMK A01 T00170011  RH  098%=      5-min Rain = 0.01
KSE1 080205Z 03011KT 02/01 A3033 RMK A01 T00160011  RH  098%=      5-min Rain = 0
KSE1 080210Z 02011KT 02/01 A3033 RMK A01 T00170011  RH  098%=      5-min Rain = 0
KSE1 080215Z 02011KT 02/01 A3033 RMK A01 T00160011  RH  097%=      5-min Rain = 0
KSE1 080220Z 02010KT 02/01 A3033 RMK A01 T00170011  RH  097%=      5-min Rain = 0
KSE1 080225Z 02011KT 02/01 A3033 RMK A01 T00160011  RH  097%=      5-min Rain = 0
KSE1 080230Z 02012KT 02/01 A3033 RMK A01 T00160010  RH  097%=      5-min Rain = 0.01
KSE1 080235Z 03011KT 02/01 A3033 RMK A01 T00150009  RH  097%=      5-min Rain = 0
KSE1 080240Z 02010KT 02/01 A3033 RMK A01 T00150009  RH  097%=      5-min Rain = 0
KSE1 080245Z 03009KT 02/01 A3033 RMK A01 T00150009  RH  097%=      5-min Rain = 0.01
KSE1 080250Z 02009KT 02/01 A3033 RMK A01 T00150009  RH  097%=      5-min Rain = 0
KSE1 080255Z 02009KT 02/01 A3033 RMK A01 T00160010  RH  097%=      5-min Rain = 0.01
KSE1 080300Z 02010KT 02/01 A3034 RMK A01 T00150009  RH  097%=      5-min Rain = 0.01
KSE1 080305Z 02010KT 02/01 A3034 RMK A01 T00150009  RH  097%=      5-min Rain = 0
KSE1 080310Z 02010KT 01/01 A3033 RMK A01 T00140009  RH  097%=      5-min Rain = 0
KSE1 080315Z 01011KT 01/01 A3033 RMK A01 T00130007  RH  097%=      5-min Rain = 0
KSE1 080320Z 02011KT 01/01 A3033 RMK A01 T00130007  RH  097%=      5-min Rain = 0.01
KSE1 080325Z 02009KT 01/01 A3033 RMK A01 T00120007  RH  098%=      5-min Rain = 0
KSE1 080330Z 01009KT 01/01 A3033 RMK A01 T00120007  RH  098%=      5-min Rain = 0
KSE1 080335Z 02010KT 01/01 A3033 RMK A01 T00120006  RH  098%=      5-min Rain = 0
KSE1 080340Z 02011KT 01/01 A3034 RMK A01 T00110006  RH  097%=      5-min Rain = 0
KSE1 080345Z 02011KT 01/01 A3034 RMK A01 T00110006  RH  097%=      5-min Rain = 0.01
KSE1 080350Z 01009KT 01/01 A3034 RMK A01 T00120006  RH  097%=      5-min Rain = 0
KSE1 080355Z 01011KT 01/01 A3033 RMK A01 T00120007  RH  097%=      5-min Rain = 0.01
KSE1 080400Z 01010KT 01/01 A3033 RMK A01 T00110006  RH  097%=      5-min Rain = 0.01
KSE1 080405Z 01009KT 01/01 A3033 RMK A01 T00110005  RH  097%=      5-min Rain = 0
KSE1 080410Z 01009KT 01/01 A3033 RMK A01 T00120006  RH  097%=      5-min Rain = 0.01
KSE1 080415Z 01010KT 01/01 A3033 RMK A01 T00120006  RH  097%=      5-min Rain = 0
KSE1 080420Z 01010KT 01/01 A3033 RMK A01 T00120006  RH  097%=      5-min Rain = 0
KSE1 080425Z 01010KT 01/01 A3033 RMK A01 T00110006  RH  097%=      5-min Rain = 0
KSE1 080430Z 01010KT 01/01 A3032 RMK A01 T00110006  RH  097%=      5-min Rain = 0.01
KSE1 080435Z 01009KT 01/01 A3033 RMK A01 T00120006  RH  097%=      5-min Rain = 0
KSE1 080440Z 01010KT 01/01 A3032 RMK A01 T00120007  RH  097%=      5-min Rain = 0.01
KSE1 080445Z 02011KT 01/01 A3032 RMK A01 T00120007  RH  097%=      5-min Rain = 0.01
KSE1 080450Z 02010KT 01/01 A3032 RMK A01 T00120007  RH  097%=      5-min Rain = 0
KSE1 080455Z 01010KT 01/01 A3032 RMK A01 T00130007  RH  097%=      5-min Rain = 0.01
KSE1 080500Z 02009KT 01/01 A3032 RMK A01 T00130007  RH  097%=      5-min Rain = 0
KSE1 080505Z 02009KT 01/01 A3032 RMK A01 T00130008  RH  097%=      5-min Rain = 0
KSE1 080510Z 01009KT 01/01 A3032 RMK A01 T00130008  RH  098%=      5-min Rain = 0.01
KSE1 080515Z 00009KT 01/01 A3032 RMK A01 T00130008  RH  098%=      5-min Rain = 0
KSE1 080520Z 01011KT 01/01 A3031 RMK A01 T00130008  RH  098%=      5-min Rain = 0.01
KSE1 080525Z 01010KT 01/01 A3031 RMK A01 T00140009  RH  098%=      5-min Rain = 0
KSE1 080530Z 00009KT 01/01 A3031 RMK A01 T00140009  RH  098%=      5-min Rain = 0.01
KSE1 080535Z 00009KT 01/01 A3031 RMK A01 T00140009  RH  098%=      5-min Rain = 0.01
KSE1 080540Z 00009KT 01/01 A3031 RMK A01 T00140009  RH  098%=      5-min Rain = 0
KSE1 080545Z 01009KT 01/01 A3031 RMK A01 T00140009  RH  098%=      5-min Rain = 0
KSE1 080550Z 01009KT 02/01 A3031 RMK A01 T00150010  RH  098%=      5-min Rain = 0.01
KSE1 080555Z 36009KT 01/01 A303 RMK A01 T00140009  RH  098%=      5-min Rain = 0.01

Page generated in 0.0163 seconds.